Terminal Aerodrome Forecast
Issued by NWS Rapid City, SD

Home | Current Version | Previous Version | Graphics & Text | Print | Product List | Glossary On
Versions: 1 2 3 4 5 6 7 8 9 10 11 12 13 14 15 16
000
FTUS43 KUNR 171900 AAA
TAFRAP
TAF AMD
KRAP 171955Z 1720/1818 16010KT P6SM VCTS FEW040CB SCT060
     FM172100 36015G25KT P6SM TSRA SCT040 BKN070CB OVC150
     FM172300 34010KT P6SM SCT070 BKN250
     FM180200 17005KT P6SM BKN250
     FM180600 22005KT P6SM SKC=

USA.gov is the U.S. government's official web portal to all federal, state and local government web resources and services.